This is the latest recevied weather packets stored in our database for station/object IR4UCA. If no packets are shown the sender has not sent any weather packets the latest 10 day(s).
| Time | Temp. | Humidity | Pressure | Rain* | Wind** | Luminosity | Snow |
|---|---|---|---|---|---|---|---|
| 1777876185 | 16.67° C | 53% | 1017.4 hPa | 0 mm | - | - | - |
| 1777875584 | 16.11° C | 53% | 1017.3 hPa | 0 mm | - | - | - |
| 1777874984 | 16.11° C | 53% | 1017.3 hPa | 0 mm | - | - | - |
| 1777874385 | 15.56° C | 53% | 1017.2 hPa | 0 mm | - | - | - |
| 1777873785 | 15° C | 55% | 1017 hPa | 0 mm | - | - | - |
| 1777873184 | 15° C | 55% | 1016.8 hPa | 0 mm | - | - | - |
| 1777872584 | 14.44° C | 56% | 1016.8 hPa | 0 mm | - | - | - |
| 1777871984 | 14.44° C | 55% | 1016.6 hPa | 0 mm | - | - | - |
| 1777871384 | 15° C | 53% | 1016.7 hPa | 0 mm | - | - | - |
| 1777870784 | 15° C | 52% | 1016.5 hPa | 0 mm | - | - | - |
| 1777870184 | 15° C | 52% | 1016.5 hPa | 0 mm | - | - | - |
| 1777869584 | 15° C | 53% | 1016.4 hPa | 0 mm | - | - | - |
| 1777868984 | 14.44° C | 54% | 1016.3 hPa | 0 mm | - | - | - |
| 1777841985 | 20° C | 47% | 1016.1 hPa | 0 mm | - | - | - |
| 1777841386 | 20° C | 47% | 1016.1 hPa | 0 mm | - | - | - |
| 1777840784 | 20° C | 46% | 1016.2 hPa | 0 mm | - | - | - |
| 1777840183 | 20.56° C | 46% | 1016.2 hPa | 0 mm | - | - | - |
| 1777839584 | 20.56° C | 46% | 1016.2 hPa | 0 mm | - | - | - |
| 1777838984 | 20.56° C | 46% | 1016.2 hPa | 0 mm | - | - | - |
| 1777838383 | 21.11° C | 45% | 1016 hPa | 0 mm | - | - | - |
| 1777837784 | 21.11° C | 45% | 1016.1 hPa | 0 mm | - | - | - |
| 1777837183 | 21.11° C | 44% | 1016 hPa | 0 mm | - | - | - |
| 1777836585 | 21.67° C | 44% | 1016 hPa | 0 mm | - | - | - |
| 1777835384 | 22.22° C | 43% | 1015.8 hPa | 0 mm | - | - | - |
| 1777834859 | 22.22° C | 42% | 1015.7 hPa | 0 mm | - | - | - |
* Rain latest hour (hover to see other rain measurements)
** Current wind speed in m/s (hover to see current wind gust speed)